Time;durP1;ratioP1;P1;durP2;ratioP2;P2;SDS_P1;SDS_P2;PMS_P1;PMS_P2;Temp;Humidity;BMP_temperature;BMP_pressure;BME280_temperature;BME280_humidity;BME280_pressure;Samples;Min_cycle;Max_cycle;Signal;HPM_P1;HPM_P2
2021/03/08 00:00:35;;;;;;;8.18;1.50;;;3.80;90.00;;;;;;5069141;28;20059;-73
2021/03/08 00:03:03;;;;;;;8.60;1.65;;;3.80;90.10;;;;;;5086272;28;20046;-73
2021/03/08 00:05:28;;;;;;;18.20;1.63;;;3.80;90.10;;;;;;5071620;28;20141;-73
2021/03/08 00:07:54;;;;;;;13.85;1.38;;;3.80;90.10;;;;;;5088866;28;20150;-73
2021/03/08 00:10:20;;;;;;;26.40;2.53;;;3.70;90.00;;;;;;5088887;28;20050;-74
2021/03/08 00:12:48;;;;;;;5.82;1.13;;;3.70;90.20;;;;;;5085368;28;20047;-73
2021/03/08 00:15:16;;;;;;;20.85;1.75;;;3.70;90.10;;;;;;5068321;28;20036;-73
2021/03/08 00:17:43;;;;;;;9.45;1.92;;;3.80;90.20;;;;;;5070059;28;20736;-73
2021/03/08 00:20:11;;;;;;;12.20;1.23;;;3.80;90.10;;;;;;5048615;28;20056;-74
2021/03/08 00:22:38;;;;;;;13.35;1.80;;;3.70;90.30;;;;;;5054639;28;20043;-74
2021/03/08 00:25:07;;;;;;;11.00;1.77;;;3.70;90.00;;;;;;5088224;28;20036;-74
2021/03/08 00:27:33;;;;;;;11.93;1.23;;;3.70;89.90;;;;;;5068111;28;20044;-74
2021/03/08 00:29:59;;;;;;;7.65;1.05;;;3.80;89.80;;;;;;5044520;28;20051;-74
2021/03/08 00:32:24;;;;;;;8.73;1.55;;;3.70;90.00;;;;;;5088430;28;20039;-74
2021/03/08 00:34:50;;;;;;;15.20;1.23;;;3.80;90.00;;;;;;5069447;28;20345;-73
2021/03/08 00:37:16;;;;;;;9.90;1.25;;;3.70;90.50;;;;;;5088133;28;20450;-74
2021/03/08 00:39:42;;;;;;;20.77;2.63;;;3.80;90.40;;;;;;5070302;28;20048;-74
2021/03/08 00:42:08;;;;;;;18.33;2.15;;;3.80;90.10;;;;;;5087060;28;20123;-74
2021/03/08 00:44:34;;;;;;;14.23;1.95;;;3.70;90.20;;;;;;5087780;28;20767;-73
2021/03/08 00:47:00;;;;;;;12.38;1.50;;;3.70;90.20;;;;;;5087221;28;20143;-74
2021/03/08 00:49:25;;;;;;;9.35;2.40;;;3.70;90.10;;;;;;5087926;28;20067;-74
2021/03/08 00:51:52;;;;;;;11.40;1.92;;;3.80;90.20;;;;;;5089023;28;20048;-74
2021/03/08 00:54:18;;;;;;;9.50;1.15;;;3.70;90.10;;;;;;5084497;28;20047;-73
2021/03/08 00:56:43;;;;;;;21.73;2.47;;;3.70;90.30;;;;;;5088539;28;20420;-73
2021/03/08 00:59:09;;;;;;;19.42;3.53;;;3.70;90.20;;;;;;5047195;28;20043;-74
2021/03/08 01:01:35;;;;;;;11.35;1.65;;;3.70;90.30;;;;;;5088562;28;20040;-74
2021/03/08 01:04:01;;;;;;;13.88;0.85;;;3.70;90.80;;;;;;5062345;28;20040;-74
2021/03/08 01:06:27;;;;;;;11.88;0.63;;;3.70;90.40;;;;;;5085734;28;20039;-74
2021/03/08 01:08:52;;;;;;;10.30;0.82;;;3.70;89.50;;;;;;5070478;28;20043;-73
2021/03/08 01:11:18;;;;;;;11.90;0.90;;;3.70;90.00;;;;;;5086443;28;20051;-73
2021/03/08 01:13:44;;;;;;;4.63;0.70;;;3.60;89.50;;;;;;5067536;28;20066;-74
2021/03/08 01:16:10;;;;;;;11.30;2.25;;;3.60;89.40;;;;;;5070219;28;20043;-74
2021/03/08 01:18:36;;;;;;;9.70;0.90;;;3.60;88.50;;;;;;5088436;28;20098;-74
2021/03/08 01:21:02;;;;;;;9.23;1.35;;;3.60;88.60;;;;;;5082706;28;20137;-73
2021/03/08 01:23:28;;;;;;;5.70;0.60;;;3.50;87.90;;;;;;5073100;28;20067;-73
2021/03/08 01:25:54;;;;;;;13.68;2.40;;;3.50;87.90;;;;;;5067729;28;20041;-73
2021/03/08 01:28:19;;;;;;;7.22;0.70;;;3.50;88.60;;;;;;5041478;28;20040;-74
2021/03/08 01:30:45;;;;;;;14.43;1.45;;;3.50;88.40;;;;;;5052854;28;20436;-73
2021/03/08 01:33:12;;;;;;;17.33;1.17;;;3.50;87.70;;;;;;5050677;28;20378;-73
2021/03/08 01:35:38;;;;;;;8.50;0.88;;;3.50;87.60;;;;;;5088392;28;20036;-73
2021/03/08 01:38:04;;;;;;;20.30;1.88;;;3.40;87.10;;;;;;5087481;28;20040;-74
2021/03/08 01:40:33;;;;;;;10.32;1.20;;;3.40;87.10;;;;;;5088185;28;20091;-73
2021/03/08 01:42:59;;;;;;;15.65;1.48;;;3.40;87.80;;;;;;5060430;28;20033;-73
2021/03/08 01:45:25;;;;;;;9.82;1.17;;;3.40;87.70;;;;;;5051057;28;20429;-73
2021/03/08 01:47:52;;;;;;;10.07;0.95;;;3.40;86.90;;;;;;5088179;28;20067;-73
2021/03/08 01:50:53;;;;;;;9.00;1.15;;;3.40;87.20;;;;;;5070312;28;20478;-73
2021/03/08 01:53:20;;;;;;;10.10;0.80;;;3.40;86.70;;;;;;4975581;28;20055;-73
2021/03/08 01:55:46;;;;;;;5.80;0.70;;;3.40;87.10;;;;;;5031924;28;20060;-73
2021/03/08 01:58:13;;;;;;;5.88;0.70;;;3.40;87.30;;;;;;5065806;28;20441;-73
2021/03/08 02:00:39;;;;;;;10.77;1.92;;;3.30;87.20;;;;;;5085101;28;20045;-74
2021/03/08 02:03:06;;;;;;;7.28;1.23;;;3.30;87.20;;;;;;5090921;28;20033;-73
2021/03/08 02:05:46;;;;;;;11.45;0.68;;;3.30;87.50;;;;;;5074004;28;20040;-73
2021/03/08 02:08:16;;;;;;;6.97;0.90;;;3.30;87.70;;;;;;5073068;28;20052;-73
2021/03/08 02:10:43;;;;;;;7.38;0.95;;;3.30;87.30;;;;;;5078742;28;20040;-74
2021/03/08 02:13:29;;;;;;;8.85;1.63;;;3.30;87.90;;;;;;5059747;28;20089;-73
2021/03/08 02:16:13;;;;;;;8.32;1.58;;;3.30;88.20;;;;;;5091502;28;20043;-73
2021/03/08 02:18:58;;;;;;;12.00;1.80;;;3.30;88.20;;;;;;5073362;28;20040;-73
2021/03/08 02:21:41;;;;;;;9.07;1.60;;;3.30;88.70;;;;;;5051393;28;20110;-74
2021/03/08 02:25:01;;;;;;;9.38;1.33;;;3.20;88.00;;;;;;5051762;28;20044;-73
2021/03/08 02:27:49;;;;;;;11.90;1.80;;;3.30;87.90;;;;;;4988633;28;20070;-73
2021/03/08 02:30:32;;;;;;;12.90;1.75;;;3.30;87.70;;;;;;5085464;28;20051;-74
2021/03/08 02:33:01;;;;;;;8.20;0.80;;;3.20;87.60;;;;;;5091179;28;20475;-74
2021/03/08 02:35:28;;;;;;;17.58;2.88;;;3.20;86.40;;;;;;5086139;28;20040;-73
2021/03/08 02:37:58;;;;;;;12.73;1.83;;;3.20;86.60;;;;;;5059315;28;20142;-73
2021/03/08 02:40:30;;;;;;;12.55;1.30;;;3.30;86.90;;;;;;5071597;28;20044;-73
2021/03/08 02:42:57;;;;;;;10.20;1.63;;;3.30;87.20;;;;;;5081425;28;20132;-74
2021/03/08 02:45:27;;;;;;;6.68;1.75;;;3.20;87.30;;;;;;5050378;28;20048;-74
2021/03/08 02:47:54;;;;;;;11.25;2.55;;;3.30;86.90;;;;;;5050584;28;20055;-73
2021/03/08 02:50:26;;;;;;;14.23;0.88;;;3.20;87.70;;;;;;5067912;28;20078;-73
2021/03/08 02:52:58;;;;;;;22.35;1.52;;;3.20;86.80;;;;;;5091162;28;20389;-73
2021/03/08 02:55:38;;;;;;;6.32;0.82;;;3.20;86.70;;;;;;5080599;28;20048;-73
2021/03/08 02:58:07;;;;;;;7.55;1.27;;;3.20;86.90;;;;;;5050653;28;20040;-74
2021/03/08 03:00:34;;;;;;;15.75;1.95;;;3.20;87.10;;;;;;5050431;28;20059;-74
2021/03/08 03:03:00;;;;;;;6.25;0.30;;;3.20;86.60;;;;;;5065571;28;20043;-73
2021/03/08 03:05:27;;;;;;;6.75;1.75;;;3.30;86.20;;;;;;5089161;28;20038;-74
2021/03/08 03:07:55;;;;;;;7.90;0.60;;;3.20;85.90;;;;;;5072749;28;20428;-74
2021/03/08 03:10:27;;;;;;;9.15;1.02;;;3.20;86.20;;;;;;5090018;28;20310;-74
2021/03/08 03:12:54;;;;;;;16.40;0.82;;;3.20;86.40;;;;;;5090502;28;20071;-74
2021/03/08 03:15:20;;;;;;;4.88;1.10;;;3.20;86.50;;;;;;5089554;28;20043;-73
2021/03/08 03:17:47;;;;;;;10.45;0.90;;;3.20;86.70;;;;;;5049802;28;20041;-74
2021/03/08 03:20:16;;;;;;;7.47;1.20;;;3.20;87.10;;;;;;5057947;28;20604;-74
2021/03/08 03:22:46;;;;;;;6.57;1.05;;;3.20;86.40;;;;;;5034172;28;20047;-74
2021/03/08 03:25:17;;;;;;;9.13;1.02;;;3.20;86.30;;;;;;5049696;28;20052;-74
2021/03/08 03:27:45;;;;;;;11.23;0.60;;;3.20;86.50;;;;;;5050285;28;20477;-74
2021/03/08 03:30:12;;;;;;;23.85;2.65;;;3.10;86.80;;;;;;5078573;28;20155;-74
2021/03/08 03:32:40;;;;;;;12.75;2.00;;;3.10;86.40;;;;;;5089982;28;20032;-73
2021/03/08 03:35:08;;;;;;;11.93;2.38;;;3.10;86.10;;;;;;5071568;28;20064;-74
2021/03/08 03:37:34;;;;;;;4.63;0.50;;;3.10;86.40;;;;;;5050366;28;20434;-74
2021/03/08 03:40:00;;;;;;;10.38;0.40;;;3.00;86.50;;;;;;5086923;28;20046;-74
2021/03/08 03:42:26;;;;;;;7.63;1.55;;;3.00;86.70;;;;;;5088923;28;20051;-74
2021/03/08 03:44:52;;;;;;;7.18;0.88;;;3.00;86.40;;;;;;5089707;28;20395;-74
2021/03/08 03:47:18;;;;;;;6.60;0.40;;;3.00;86.10;;;;;;5089320;28;20044;-74
2021/03/08 03:49:44;;;;;;;11.02;0.68;;;2.90;86.40;;;;;;5071747;28;20040;-74
2021/03/08 03:52:10;;;;;;;10.98;1.70;;;2.90;86.60;;;;;;5089410;28;20043;-74
2021/03/08 03:54:36;;;;;;;5.05;0.60;;;2.90;86.80;;;;;;5054882;28;20035;-74
2021/03/08 03:57:06;;;;;;;7.47;1.85;;;2.90;86.30;;;;;;5071539;28;20040;-74
2021/03/08 03:59:45;;;;;;;8.23;1.10;;;2.90;86.20;;;;;;5054403;28;20070;-74
2021/03/08 04:02:17;;;;;;;12.25;1.25;;;2.90;85.70;;;;;;5089542;28;20044;-74
2021/03/08 04:04:56;;;;;;;7.10;0.38;;;2.90;86.30;;;;;;5071914;28;20036;-74
2021/03/08 04:07:23;;;;;;;9.55;0.43;;;2.90;85.80;;;;;;5089074;28;20392;-74
2021/03/08 04:09:51;;;;;;;5.15;0.68;;;2.90;85.70;;;;;;5089576;28;20055;-73
2021/03/08 04:12:27;;;;;;;8.82;0.95;;;2.90;85.50;;;;;;5075148;28;20122;-73
2021/03/08 04:14:58;;;;;;;6.05;0.77;;;2.90;85.70;;;;;;5087421;28;20047;-74
2021/03/08 04:17:26;;;;;;;9.73;1.58;;;2.90;85.70;;;;;;5089294;28;20036;-74
2021/03/08 04:19:56;;;;;;;9.93;0.30;;;2.90;85.80;;;;;;5063944;28;20123;-74
2021/03/08 04:22:25;;;;;;;7.45;1.05;;;2.80;86.10;;;;;;5088606;28;20048;-74
2021/03/08 04:24:53;;;;;;;6.93;0.68;;;2.80;85.90;;;;;;5089078;28;20039;-74
2021/03/08 04:27:20;;;;;;;7.10;0.98;;;2.80;86.00;;;;;;5069242;28;20164;-74
2021/03/08 04:29:48;;;;;;;12.55;0.50;;;2.70;86.20;;;;;;5059017;28;20100;-74
2021/03/08 04:32:15;;;;;;;4.95;0.35;;;2.70;86.00;;;;;;5088767;28;20040;-74
2021/03/08 04:34:41;;;;;;;7.07;1.00;;;2.60;86.00;;;;;;5088872;28;20047;-74
2021/03/08 04:37:07;;;;;;;6.25;0.50;;;2.60;85.80;;;;;;5042556;28;20048;-74
2021/03/08 04:39:37;;;;;;;9.50;0.77;;;2.60;86.00;;;;;;5078391;28;20135;-74
2021/03/08 04:42:07;;;;;;;7.25;0.50;;;2.50;85.80;;;;;;5085463;28;20056;-74
2021/03/08 04:44:38;;;;;;;9.95;1.40;;;2.50;85.80;;;;;;5030780;28;20472;-74
2021/03/08 04:47:05;;;;;;;7.63;0.98;;;2.40;85.60;;;;;;5047257;28;20044;-74
2021/03/08 04:49:35;;;;;;;11.75;2.42;;;2.30;85.30;;;;;;5030009;28;20048;-74
2021/03/08 04:52:01;;;;;;;8.45;0.60;;;2.30;86.70;;;;;;5085438;28;20050;-74
2021/03/08 04:54:28;;;;;;;3.78;1.00;;;2.20;86.20;;;;;;5076420;28;20039;-74
2021/03/08 04:56:55;;;;;;;5.43;0.40;;;2.10;85.60;;;;;;5076934;28;20051;-74
2021/03/08 04:59:25;;;;;;;12.90;1.65;;;2.00;85.60;;;;;;5086697;28;20044;-74
2021/03/08 05:01:55;;;;;;;3.35;0.32;;;2.00;85.80;;;;;;5069898;28;20040;-74
2021/03/08 05:04:22;;;;;;;7.55;1.67;;;1.90;86.50;;;;;;5086902;28;20072;-74
2021/03/08 05:06:49;;;;;;;9.68;1.65;;;1.80;86.00;;;;;;5052572;28;20323;-73
2021/03/08 05:09:15;;;;;;;8.45;1.75;;;1.80;86.80;;;;;;5087217;28;20158;-74
2021/03/08 05:11:46;;;;;;;7.72;0.90;;;1.70;86.30;;;;;;5069845;28;20119;-74
2021/03/08 05:14:15;;;;;;;12.70;1.55;;;1.70;86.70;;;;;;5069114;28;20040;-73
2021/03/08 05:16:44;;;;;;;7.30;0.57;;;1.70;86.00;;;;;;5047428;28;20138;-74
2021/03/08 05:19:11;;;;;;;9.75;1.85;;;1.60;85.90;;;;;;5030841;28;20045;-74
2021/03/08 05:21:37;;;;;;;6.32;0.90;;;1.50;86.00;;;;;;5087790;28;20484;-74
2021/03/08 05:24:05;;;;;;;5.25;1.02;;;1.50;85.90;;;;;;5076127;28;20167;-73
2021/03/08 05:26:31;;;;;;;5.55;0.57;;;1.40;85.80;;;;;;5087334;28;20051;-73
2021/03/08 05:28:59;;;;;;;9.15;0.47;;;1.40;86.70;;;;;;5079007;28;20041;-73
2021/03/08 05:31:31;;;;;;;5.90;1.10;;;1.30;86.00;;;;;;5087307;28;20040;-73
2021/03/08 05:34:02;;;;;;;8.52;0.75;;;1.20;85.90;;;;;;5091148;28;20345;-73
2021/03/08 05:36:28;;;;;;;4.88;1.58;;;1.30;86.00;;;;;;5091385;28;20048;-74
2021/03/08 05:38:57;;;;;;;6.18;0.40;;;1.10;86.20;;;;;;5079059;28;20424;-73
2021/03/08 05:41:50;;;;;;;6.57;1.02;;;1.10;85.90;;;;;;5051254;28;796854;-74
2021/03/08 05:44:19;;;;;;;8.77;1.10;;;1.00;85.80;;;;;;5073561;28;20098;-74
2021/03/08 05:46:54;;;;;;;8.88;1.17;;;1.00;86.10;;;;;;5054786;28;20127;-74
2021/03/08 05:49:28;;;;;;;4.38;0.28;;;0.90;85.80;;;;;;5050660;28;20090;-74
2021/03/08 05:52:24;;;;;;;4.88;1.00;;;0.90;86.00;;;;;;5091710;28;20032;-74
2021/03/08 05:55:05;;;;;;;8.40;0.75;;;0.90;85.90;;;;;;5074764;28;20040;-74
2021/03/08 05:57:59;;;;;;;6.50;1.05;;;0.80;86.00;;;;;;5091693;28;20469;-75
2021/03/08 06:00:54;;;;;;;1.80;0.47;;;0.70;86.00;;;;;;5091169;28;20048;-74
2021/03/08 06:03:32;;;;;;;6.50;1.17;;;0.70;86.20;;;;;;5058239;28;20043;-74
2021/03/08 06:06:13;;;;;;;3.30;0.30;;;0.60;86.50;;;;;;5073055;28;20040;-74
2021/03/08 06:09:19;;;;;;;3.88;0.35;;;0.60;86.30;;;;;;5080485;28;20047;-74
2021/03/08 06:12:00;;;;;;;4.85;0.85;;;0.50;86.30;;;;;;5090401;28;20040;-74
2021/03/08 06:14:40;;;;;;;5.80;0.50;;;0.50;86.60;;;;;;5063961;28;20111;-74
2021/03/08 06:17:10;;;;;;;6.10;0.52;;;0.40;86.60;;;;;;5082090;28;20047;-75
2021/03/08 06:19:37;;;;;;;2.47;0.30;;;0.40;86.50;;;;;;5080610;28;20112;-75
2021/03/08 06:22:06;;;;;;;5.47;0.50;;;0.40;86.60;;;;;;5066080;28;20476;-75
2021/03/08 06:24:35;;;;;;;5.15;0.40;;;0.40;86.70;;;;;;5086387;28;20039;-74
2021/03/08 06:27:02;;;;;;;3.08;0.47;;;0.30;86.70;;;;;;5051816;28;20058;-75
2021/03/08 06:29:31;;;;;;;4.15;0.77;;;0.30;86.80;;;;;;5088947;28;20046;-75
2021/03/08 06:31:57;;;;;;;10.70;1.30;;;0.30;86.60;;;;;;5088008;28;20036;-75
2021/03/08 06:34:23;;;;;;;9.95;0.98;;;0.30;86.70;;;;;;5054878;28;20101;-75
2021/03/08 06:36:49;;;;;;;8.60;0.60;;;0.40;87.00;;;;;;5086605;28;20044;-75
2021/03/08 06:39:15;;;;;;;4.47;1.80;;;0.40;86.90;;;;;;5042623;28;20071;-75
2021/03/08 06:41:41;;;;;;;8.20;1.35;;;0.40;87.00;;;;;;5082753;28;20399;-75
2021/03/08 06:44:08;;;;;;;7.75;1.30;;;0.40;87.30;;;;;;5031608;28;20046;-75
2021/03/08 06:46:34;;;;;;;4.30;1.25;;;0.50;87.30;;;;;;5086578;28;20194;-75
2021/03/08 06:49:03;;;;;;;3.38;0.80;;;0.40;87.20;;;;;;5062870;28;20091;-75
2021/03/08 06:51:29;;;;;;;6.20;1.65;;;0.50;87.80;;;;;;5070305;28;20098;-75
2021/03/08 06:53:55;;;;;;;8.85;1.50;;;0.50;87.60;;;;;;5069625;28;20028;-75
2021/03/08 06:56:25;;;;;;;11.32;1.38;;;0.50;87.60;;;;;;5058168;28;20935;-75
2021/03/08 06:59:15;;;;;;;10.90;1.60;;;0.60;87.70;;;;;;5073827;28;20044;-75
2021/03/08 07:01:42;;;;;;;7.95;1.63;;;0.70;88.40;;;;;;5063084;28;20050;-75
2021/03/08 07:04:27;;;;;;;9.43;1.55;;;0.80;88.50;;;;;;5055177;28;20037;-76
2021/03/08 07:07:00;;;;;;;9.50;1.25;;;0.80;87.80;;;;;;5059699;28;20050;-75
2021/03/08 07:09:26;;;;;;;8.88;1.52;;;0.90;87.90;;;;;;5077882;28;20037;-75
2021/03/08 07:12:05;;;;;;;10.88;2.00;;;1.00;88.50;;;;;;5085538;28;20664;-75
2021/03/08 07:14:31;;;;;;;10.98;3.13;;;1.10;88.00;;;;;;5084193;28;20040;-75
2021/03/08 07:16:57;;;;;;;12.23;2.35;;;1.10;88.40;;;;;;5088744;28;20043;-75
2021/03/08 07:19:23;;;;;;;15.57;3.15;;;1.20;88.60;;;;;;5063998;28;20043;-75
2021/03/08 07:21:52;;;;;;;13.38;3.90;;;1.30;88.30;;;;;;5071418;28;20694;-75
2021/03/08 07:24:19;;;;;;;12.15;2.28;;;1.40;88.10;;;;;;5057119;28;20044;-75
2021/03/08 07:26:50;;;;;;;15.80;1.60;;;1.40;88.20;;;;;;5074369;28;20345;-76
2021/03/08 07:29:18;;;;;;;15.95;2.58;;;1.50;88.10;;;;;;5080139;28;20114;-75
2021/03/08 07:31:54;;;;;;;9.85;1.23;;;1.50;88.20;;;;;;5078353;28;20119;-75
2021/03/08 07:34:20;;;;;;;10.75;2.53;;;1.60;88.00;;;;;;5065882;28;20088;-76
2021/03/08 07:36:58;;;;;;;14.85;4.68;;;1.70;88.50;;;;;;5083572;28;20059;-76
2021/03/08 07:39:25;;;;;;;5.60;2.17;;;1.80;88.40;;;;;;5084843;28;20040;-75
2021/03/08 07:41:56;;;;;;;11.30;2.33;;;1.90;88.50;;;;;;5088524;28;20754;-76
2021/03/08 07:44:24;;;;;;;12.27;2.28;;;2.10;89.50;;;;;;5059394;28;20069;-75
2021/03/08 07:46:51;;;;;;;14.27;1.75;;;2.60;90.00;;;;;;5050216;28;20037;-75
2021/03/08 07:49:31;;;;;;;11.68;2.60;;;3.20;88.50;;;;;;5061223;28;20040;-75
2021/03/08 07:52:19;;;;;;;8.30;2.47;;;3.40;87.50;;;;;;5071620;28;20429;-75
2021/03/08 07:54:54;;;;;;;27.20;4.38;;;3.50;86.30;;;;;;5057900;28;20428;-75
2021/03/08 07:57:20;;;;;;;7.55;2.40;;;3.60;85.90;;;;;;5052722;28;20043;-75
2021/03/08 07:59:47;;;;;;;6.97;1.40;;;4.00;85.90;;;;;;5077015;28;20048;-75
2021/03/08 08:02:13;;;;;;;7.18;1.25;;;4.40;85.50;;;;;;5076710;28;20040;-75
2021/03/08 08:04:39;;;;;;;10.55;2.13;;;5.20;84.30;;;;;;5061732;28;20594;-75
2021/03/08 08:07:07;;;;;;;8.95;1.27;;;6.00;82.30;;;;;;5083430;28;20313;-75
2021/03/08 08:09:43;;;;;;;9.68;2.63;;;6.90;80.30;;;;;;5082020;28;20059;-75
2021/03/08 08:12:22;;;;;;;10.50;2.97;;;7.70;77.80;;;;;;5085934;28;20036;-75
2021/03/08 08:14:50;;;;;;;16.33;4.53;;;8.40;76.90;;;;;;5080882;28;20093;-74
2021/03/08 08:17:19;;;;;;;9.05;1.95;;;8.90;74.90;;;;;;5075592;28;20432;-75
2021/03/08 08:19:46;;;;;;;8.88;1.95;;;9.20;74.90;;;;;;5064717;28;20083;-74
2021/03/08 08:22:25;;;;;;;15.55;1.80;;;9.40;74.30;;;;;;5078473;28;20459;-74
2021/03/08 08:24:53;;;;;;;10.00;1.52;;;9.70;72.50;;;;;;5072081;28;20124;-74
2021/03/08 08:27:21;;;;;;;9.07;2.63;;;9.80;73.90;;;;;;5081122;28;20506;-75
2021/03/08 08:29:49;;;;;;;12.75;1.90;;;9.60;73.00;;;;;;5079959;28;20052;-75
2021/03/08 08:32:15;;;;;;;20.77;2.17;;;9.60;73.00;;;;;;5068432;28;20194;-74
2021/03/08 08:34:47;;;;;;;10.50;1.23;;;9.70;73.60;;;;;;5068128;28;20040;-74
2021/03/08 08:37:24;;;;;;;8.57;1.17;;;9.50;73.40;;;;;;5087459;28;20059;-74
2021/03/08 08:39:52;;;;;;;9.52;1.15;;;8.90;70.70;;;;;;5050435;28;20037;-74
2021/03/08 08:42:23;;;;;;;7.13;1.05;;;8.40;76.00;;;;;;5079638;28;20056;-74
2021/03/08 08:44:53;;;;;;;7.05;1.10;;;8.00;78.10;;;;;;5080529;28;20123;-75
2021/03/08 08:47:25;;;;;;;15.20;1.88;;;7.50;78.10;;;;;;5064446;28;20402;-75
2021/03/08 08:49:58;;;;;;;8.95;0.82;;;7.00;79.60;;;;;;5060345;28;20045;-75
2021/03/08 08:52:52;;;;;;;22.33;5.28;;;6.70;80.40;;;;;;5059606;28;20033;-75
2021/03/08 08:55:24;;;;;;;;;;;6.60;79.90;;;;;;5066931;28;20036;-75
2021/03/08 08:58:29;;;;;;;5.85;1.08;;;6.50;77.80;;;;;;5073034;28;19920;-75
2021/03/08 09:01:11;;;;;;;8.63;0.98;;;6.50;80.50;;;;;;5072361;28;20049;-75
2021/03/08 09:04:00;;;;;;;10.38;1.00;;;6.20;81.30;;;;;;5078491;28;20052;-75
2021/03/08 09:06:53;;;;;;;10.43;0.82;;;6.00;81.00;;;;;;5060678;28;20047;-75
2021/03/08 09:09:47;;;;;;;12.70;3.10;;;5.80;82.50;;;;;;5083679;28;20050;-75
2021/03/08 09:12:31;;;;;;;6.60;1.40;;;5.70;82.50;;;;;;5080949;28;20045;-75
2021/03/08 09:15:09;;;;;;;9.02;0.80;;;5.60;83.50;;;;;;5064602;28;20060;-75
2021/03/08 09:17:49;;;;;;;10.57;1.50;;;5.60;84.40;;;;;;5049535;28;20040;-75
2021/03/08 09:20:14;;;;;;;6.88;1.02;;;5.60;84.20;;;;;;5050482;28;20126;-75
2021/03/08 09:22:47;;;;;;;10.52;2.08;;;5.60;84.70;;;;;;5054072;28;20126;-75
2021/03/08 09:25:23;;;;;;;6.03;0.77;;;5.70;85.90;;;;;;5076647;28;20044;-75
2021/03/08 09:27:50;;;;;;;5.38;1.15;;;5.60;85.80;;;;;;5073741;28;20032;-75
2021/03/08 09:30:18;;;;;;;7.78;1.55;;;5.60;85.80;;;;;;5082003;28;20044;-75
2021/03/08 09:32:51;;;;;;;9.52;0.98;;;5.60;84.90;;;;;;5084620;28;20488;-75
2021/03/08 09:35:19;;;;;;;6.15;0.88;;;5.70;84.80;;;;;;5086342;28;20119;-75
2021/03/08 09:37:48;;;;;;;11.68;0.93;;;5.70;86.20;;;;;;5064740;28;20131;-75
2021/03/08 09:40:16;;;;;;;14.50;1.42;;;5.80;86.60;;;;;;5060902;28;20060;-75
2021/03/08 09:42:42;;;;;;;7.90;1.20;;;6.00;85.10;;;;;;5068749;28;20060;-75
2021/03/08 09:45:20;;;;;;;5.47;1.27;;;6.10;85.00;;;;;;5049851;28;20032;-75
2021/03/08 09:47:48;;;;;;;6.63;0.88;;;6.10;84.90;;;;;;5075682;28;20126;-75
2021/03/08 09:50:17;;;;;;;5.43;0.73;;;6.10;84.00;;;;;;5074736;28;20119;-75
2021/03/08 09:52:46;;;;;;;9.38;2.00;;;6.30;84.90;;;;;;5077977;28;20051;-75
2021/03/08 09:55:17;;;;;;;7.50;1.13;;;6.40;84.80;;;;;;5078836;28;20040;-75
2021/03/08 09:57:44;;;;;;;10.18;1.45;;;6.50;83.90;;;;;;5076086;28;20123;-75
2021/03/08 10:00:21;;;;;;;5.88;0.70;;;6.50;82.60;;;;;;5081852;28;20511;-75
2021/03/08 10:02:57;;;;;;;9.70;1.35;;;6.60;81.00;;;;;;5081935;28;20044;-75
2021/03/08 10:05:47;;;;;;;14.18;1.75;;;6.80;82.40;;;;;;5067424;28;20044;-75
2021/03/08 10:08:15;;;;;;;10.45;0.85;;;6.90;81.70;;;;;;5087991;28;20048;-75
2021/03/08 10:10:52;;;;;;;6.85;0.52;;;6.90;81.60;;;;;;5072014;28;20040;-75
2021/03/08 10:13:19;;;;;;;5.00;0.32;;;7.10;79.70;;;;;;5072805;28;20036;-75
2021/03/08 10:15:48;;;;;;;2.50;0.40;;;7.20;81.00;;;;;;5078746;28;20136;-75
2021/03/08 10:18:19;;;;;;;5.88;0.57;;;7.20;79.30;;;;;;5066232;28;20032;-75
2021/03/08 10:20:59;;;;;;;6.43;0.98;;;7.30;80.80;;;;;;5086413;28;20040;-75
2021/03/08 10:23:33;;;;;;;6.32;1.23;;;7.40;78.50;;;;;;5087636;28;20036;-75
2021/03/08 10:26:12;;;;;;;5.50;0.88;;;7.50;81.10;;;;;;5069924;28;20348;-75
2021/03/08 10:28:43;;;;;;;7.32;0.88;;;7.70;78.30;;;;;;5061409;28;20040;-75
2021/03/08 10:31:30;;;;;;;8.05;2.28;;;7.80;80.40;;;;;;5086079;28;20740;-75
2021/03/08 10:33:59;;;;;;;5.35;1.25;;;7.90;77.10;;;;;;5080837;28;20482;-75
2021/03/08 10:36:27;;;;;;;9.57;0.50;;;7.90;78.30;;;;;;5081068;28;20036;-75
2021/03/08 10:39:02;;;;;;;10.88;1.10;;;8.00;77.90;;;;;;5047778;28;20062;-75
2021/03/08 10:41:30;;;;;;;10.88;1.52;;;8.10;77.60;;;;;;5083657;28;20048;-75
2021/03/08 10:44:00;;;;;;;6.30;0.40;;;8.20;79.70;;;;;;5087181;28;20040;-75
2021/03/08 10:46:38;;;;;;;7.30;1.13;;;8.30;77.80;;;;;;5067218;28;20431;-75
2021/03/08 10:49:07;;;;;;;7.78;0.40;;;8.40;72.10;;;;;;5078407;28;20047;-75
2021/03/08 10:51:35;;;;;;;10.63;1.20;;;8.40;75.50;;;;;;5088453;28;20094;-75
2021/03/08 10:54:06;;;;;;;6.88;0.95;;;8.50;75.70;;;;;;5080442;28;20485;-75
2021/03/08 10:56:35;;;;;;;4.55;0.70;;;8.50;74.60;;;;;;5084963;28;20381;-75
2021/03/08 10:59:01;;;;;;;3.30;0.75;;;8.60;75.30;;;;;;5065184;28;20037;-75
2021/03/08 11:01:29;;;;;;;6.55;1.85;;;8.70;76.50;;;;;;5089588;28;20046;-76
2021/03/08 11:03:55;;;;;;;6.75;0.50;;;8.90;75.40;;;;;;5088904;28;20040;-76
2021/03/08 11:06:23;;;;;;;8.80;0.68;;;8.80;74.00;;;;;;5076624;28;20041;-75
2021/03/08 11:09:01;;;;;;;10.50;1.13;;;8.90;75.50;;;;;;5078593;28;20044;-75
2021/03/08 11:11:29;;;;;;;9.65;1.65;;;9.10;72.40;;;;;;5072172;28;20046;-75
2021/03/08 11:14:00;;;;;;;7.80;1.75;;;9.10;75.70;;;;;;5081926;28;20043;-75
2021/03/08 11:16:27;;;;;;;6.60;1.58;;;9.00;74.50;;;;;;5076578;28;20081;-76
2021/03/08 11:18:53;;;;;;;10.98;1.42;;;8.80;75.40;;;;;;5084464;28;20119;-75
2021/03/08 11:21:30;;;;;;;7.38;1.33;;;8.70;75.40;;;;;;5079277;28;20389;-76
2021/03/08 11:24:15;;;;;;;12.93;1.58;;;8.50;75.70;;;;;;5087685;28;20040;-76
2021/03/08 11:26:42;;;;;;;11.05;2.13;;;8.30;71.70;;;;;;5087971;28;20044;-75
2021/03/08 11:29:24;;;;;;;8.13;1.73;;;8.30;76.50;;;;;;5076136;28;20055;-75
2021/03/08 11:31:54;;;;;;;7.40;1.55;;;8.20;74.60;;;;;;5057086;28;20041;-76
2021/03/08 11:34:40;;;;;;;8.63;1.10;;;8.00;76.70;;;;;;5078758;28;20040;-76
2021/03/08 11:37:16;;;;;;;9.00;1.38;;;7.90;75.70;;;;;;5077027;28;20119;-75
2021/03/08 11:39:44;;;;;;;8.80;2.10;;;7.90;76.20;;;;;;5077984;28;20043;-76
2021/03/08 11:42:12;;;;;;;8.50;3.00;;;7.70;76.30;;;;;;5085652;28;20090;-75
2021/03/08 11:44:38;;;;;;;10.88;2.30;;;7.60;76.50;;;;;;5086384;28;20123;-75
2021/03/08 11:47:05;;;;;;;9.77;1.63;;;7.60;78.10;;;;;;5087061;28;20032;-76
2021/03/08 11:49:31;;;;;;;10.18;1.73;;;7.70;76.70;;;;;;5088512;28;20047;-75
2021/03/08 11:51:58;;;;;;;5.18;1.23;;;7.80;75.90;;;;;;5084074;28;20043;-75
2021/03/08 11:54:25;;;;;;;5.55;1.15;;;7.90;76.70;;;;;;5083661;28;20394;-75
2021/03/08 11:56:51;;;;;;;11.18;1.02;;;8.10;76.60;;;;;;5068746;28;20044;-75
2021/03/08 11:59:17;;;;;;;11.82;3.08;;;8.40;73.70;;;;;;5085287;28;20031;-75
2021/03/08 12:01:43;;;;;;;56.42;38.38;;;8.50;74.90;;;;;;5071027;28;20043;-76
2021/03/08 12:04:09;;;;;;;10.43;3.92;;;8.70;75.30;;;;;;5068438;28;20467;-75
2021/03/08 12:06:35;;;;;;;11.85;2.30;;;8.90;75.10;;;;;;5056688;28;20123;-76
2021/03/08 12:09:02;;;;;;;9.15;1.55;;;8.90;74.00;;;;;;5077541;28;20123;-76
2021/03/08 12:11:27;;;;;;;6.65;1.58;;;8.60;72.60;;;;;;5082038;28;20036;-76
2021/03/08 12:13:53;;;;;;;8.52;1.85;;;8.30;74.30;;;;;;5085456;28;20040;-75
2021/03/08 12:16:19;;;;;;;4.03;1.63;;;8.30;76.70;;;;;;5082923;28;20115;-75
2021/03/08 12:18:45;;;;;;;5.13;1.02;;;8.40;75.70;;;;;;5086881;28;20151;-75
2021/03/08 12:21:11;;;;;;;13.00;2.17;;;8.70;77.60;;;;;;5084277;28;20661;-76
2021/03/08 12:23:37;;;;;;;6.10;1.50;;;9.10;77.30;;;;;;5070699;28;20036;-75
2021/03/08 12:26:03;;;;;;;6.32;2.05;;;9.30;75.50;;;;;;5079663;28;20093;-75
2021/03/08 12:28:28;;;;;;;8.93;2.53;;;9.60;75.80;;;;;;5061377;28;20064;-76
2021/03/08 12:30:54;;;;;;;11.02;1.42;;;9.60;76.40;;;;;;5083690;28;20063;-76
2021/03/08 12:33:21;;;;;;;6.35;1.73;;;9.60;76.20;;;;;;5060820;28;20036;-76
2021/03/08 12:35:48;;;;;;;6.18;1.25;;;9.60;72.60;;;;;;5085378;28;20040;-76
2021/03/08 12:38:14;;;;;;;4.88;0.70;;;9.60;73.50;;;;;;5063769;28;20036;-75
2021/03/08 12:40:39;;;;;;;5.68;0.93;;;9.60;73.70;;;;;;5086530;28;20074;-76
2021/03/08 12:43:05;;;;;;;5.97;1.10;;;9.70;72.10;;;;;;5067086;28;20083;-76
2021/03/08 12:45:31;;;;;;;4.80;0.52;;;9.80;72.80;;;;;;5070181;28;20385;-76
2021/03/08 12:47:57;;;;;;;7.05;1.15;;;9.90;72.40;;;;;;5087847;28;20043;-76
2021/03/08 12:50:22;;;;;;;4.40;0.77;;;9.90;72.80;;;;;;5037845;28;20055;-76
2021/03/08 12:52:48;;;;;;;7.60;0.85;;;9.90;70.30;;;;;;5083014;28;20046;-76
2021/03/08 12:55:14;;;;;;;5.72;0.80;;;9.80;68.00;;;;;;5066884;28;20040;-76
2021/03/08 12:57:40;;;;;;;5.50;0.80;;;9.70;70.20;;;;;;5087771;28;20040;-76
2021/03/08 13:00:08;;;;;;;6.47;0.65;;;9.70;71.80;;;;;;5074766;28;20047;-76
2021/03/08 13:02:33;;;;;;;5.85;1.23;;;9.80;73.20;;;;;;5059853;28;20127;-76
2021/03/08 13:04:59;;;;;;;3.15;1.13;;;9.90;72.00;;;;;;5064815;28;20461;-76
2021/03/08 13:07:26;;;;;;;5.45;0.63;;;9.80;70.50;;;;;;5080497;28;20130;-76
2021/03/08 13:09:52;;;;;;;6.30;0.82;;;9.80;72.10;;;;;;5065761;28;20044;-76